Thorco Attraction — V2BS1 — position and weather

sailwx.info

Track history (hours):
 
Tides and Currents Weather Stations Pressure Air Temp Water Temp Dewpoint Dewpoint Depression Visibility Wind Speed Wind Dir Waves Ship Positions

Thorco Attraction

Last reported at 2015-Mar-05 02:08 UTC. Time now 2015-Mar-06 12:41 UTC.
Position S 31°08' E 030°38'.

Length 132 m; draft 7 m.

Type: Cargo ship. MMSI: 304908000.

Date/timePositionNaut miles runAvg speedWind from/ knotsBaromVisibWave heightAir tempDewpointWater temp
2015-Mar-05 02:08S 31°08' E 030°38'4316.1
2015-Mar-04 23:29S 30°27' E 030°53'1415.1
2015-Mar-04 22:33S 30°14' E 030°58'1413.6
2015-Mar-04 21:33S 30°01' E 031°04'10 9.6
2015-Mar-04 20:33S 29°52' E 031°04'3 2.9
2015-Mar-04 19:29S 29°53' E 031°00'0 0.0
2015-Mar-04 18:11S 29°53' E 031°00'0 0.0
2015-Mar-04 17:29S 29°53' E 031°00'0 0.0
2015-Mar-04 16:29S 29°53' E 031°00'0 0.0
2015-Mar-04 15:29S 29°53' E 031°00'0 0.0
2015-Mar-04 14:29S 29°53' E 031°00'0 0.0
2015-Mar-04 13:29S 29°53' E 031°00'0 0.0
2015-Mar-04 12:29S 29°53' E 031°00'0 0.0
2015-Mar-04 11:29S 29°53' E 031°00'0 0.0
2015-Mar-04 10:29S 29°53' E 031°00'0 0.0
2015-Mar-04 09:29S 29°53' E 031°00'0 0.0
2015-Mar-04 08:29S 29°53' E 031°00'0 0.0
2015-Mar-04 07:29S 29°53' E 031°00'0 0.0
2015-Mar-04 06:29S 29°53' E 031°00'0 0.0
2015-Mar-04 05:29S 29°53' E 031°00'0 0.0
2015-Mar-04 04:29S 29°53' E 031°00'0 0.0
2015-Mar-04 03:29S 29°53' E 031°00'0 0.0
2015-Mar-04 02:29S 29°53' E 031°00'0 0.0
2015-Mar-04 01:29S 29°53' E 031°00'0 0.0
2015-Mar-03 23:23S 29°53' E 031°00'0 0.0
2015-Mar-03 22:29S 29°53' E 031°00'0 0.0
2015-Mar-03 21:29S 29°53' E 031°00'0 0.0
2015-Mar-03 20:29S 29°53' E 031°00'0 0.0
2015-Mar-03 19:23S 29°53' E 031°00'0 0.0
2015-Mar-03 18:29S 29°53' E 031°00'0 0.0
2015-Mar-03 17:17S 29°53' E 031°00'0 0.0
2015-Mar-03 16:29S 29°53' E 031°00'0 0.0
2015-Mar-03 15:23S 29°53' E 031°00'0 0.0
2015-Mar-03 14:29S 29°53' E 031°00'0 0.0
2015-Mar-03 13:29S 29°53' E 031°00'0 0.0
2015-Mar-03 12:29S 29°53' E 031°00'0 0.0
2015-Mar-03 11:29S 29°53' E 031°00'0 0.0
2015-Mar-03 10:29S 29°53' E 031°00'0 0.0
2015-Mar-03 09:29S 29°53' E 031°00'0 0.0
2015-Mar-03 08:17S 29°53' E 031°00'0 0.0
2015-Mar-03 07:17S 29°53' E 031°00'0 0.0
2015-Mar-03 06:23S 29°53' E 031°00'0 0.0
2015-Mar-03 05:23S 29°53' E 031°00'0 0.0
2015-Mar-03 04:29S 29°53' E 031°00'0 0.0
2015-Mar-03 03:23S 29°53' E 031°00'0 0.0
2015-Mar-03 02:05S 29°53' E 031°00'0 0.0
2015-Mar-03 01:29S 29°53' E 031°00'0 0.0
2015-Mar-03 00:11S 29°53' E 031°00'0 0.0
2015-Mar-02 23:29S 29°53' E 031°00'0 0.0
2015-Mar-02 22:29S 29°53' E 031°00'0 0.0
2015-Mar-02 21:29S 29°53' E 031°00'0 0.0
2015-Mar-02 20:23S 29°53' E 031°00'0 0.0
2015-Mar-02 19:05S 29°53' E 031°00'0 0.0
2015-Mar-02 18:05S 29°53' E 031°00'0 0.0
2015-Mar-02 17:29S 29°53' E 031°00'0 0.0
2015-Mar-02 16:29S 29°53' E 031°00'0 0.0
2015-Mar-02 15:29S 29°53' E 031°00'0 0.0
2015-Mar-02 14:23S 29°53' E 031°00'0 0.0
2015-Mar-02 13:29S 29°53' E 031°00'0 0.0
2015-Mar-02 12:29S 29°53' E 031°00'0 0.0
2015-Mar-02 11:29S 29°53' E 031°00'0 0.0
2015-Mar-02 10:31S 29°53' E 031°00'3 3.4
2015-Mar-02 09:33S 29°52' E 031°04'6 5.7
2015-Mar-02 08:31S 29°47' E 031°08'6 6.0
2015-Mar-02 07:33S 29°41' E 031°09'0 0.0
2015-Mar-02 06:27S 29°41' E 031°09'0 0.0
2015-Mar-02 05:27S 29°41' E 031°09'0 0.0
2015-Mar-02 04:21S 29°41' E 031°09'0 0.0
2015-Mar-02 03:33S 29°41' E 031°09'0 0.0
2015-Mar-02 02:27S 29°41' E 031°09'0 0.0
2015-Mar-02 01:27S 29°41' E 031°09'0 0.0
2015-Mar-02 00:33S 29°41' E 031°09'0 0.0
2015-Mar-01 23:33S 29°41' E 031°09'0 0.0
2015-Mar-01 22:09S 29°41' E 031°09'0 0.0
2015-Mar-01 21:33S 29°41' E 031°09'0 0.0
2015-Mar-01 20:21S 29°41' E 031°09'0 0.0
2015-Mar-01 19:21S 29°41' E 031°09'0 0.0
2015-Mar-01 18:33S 29°41' E 031°09'0 0.1
2015-Mar-01 16:27S 29°41' E 031°09'0 0.0
2015-Mar-01 15:33S 29°41' E 031°09'0 0.0
2015-Mar-01 14:27S 29°41' E 031°09'0 0.0
2015-Mar-01 13:33S 29°41' E 031°09'0 0.1
2015-Mar-01 12:33S 29°41' E 031°09'0 0.0
2015-Mar-01 11:33S 29°41' E 031°09'0 0.1
2015-Mar-01 10:33S 29°41' E 031°09'0 0.0
2015-Mar-01 09:33S 29°41' E 031°09'0 0.0
2015-Mar-01 08:33S 29°41' E 031°09'0 0.0
2015-Mar-01 07:33S 29°41' E 031°09'7 7.3
2015-Mar-01 06:33S 29°45' E 031°16'1010.2
2015-Mar-01 05:32S 29°42' E 031°28'1110.7
2015-Mar-01 04:33S 29°39' E 031°39'1110.9
2015-Mar-01 03:30S 29°34' E 031°51'  
Track history (hours):
 
Tides and Currents Weather Stations Pressure Air Temp Water Temp Dewpoint Dewpoint Depression Visibility Wind Speed Wind Dir Waves Ship Positions

Thorco Attraction

Last reported at 2015-Mar-05 02:08 UTC. Time now 2015-Mar-06 12:41 UTC.
Position S 31°08' E 030°38'.

Length 132 m; draft 7 m.

Type: Cargo ship. MMSI: 304908000.

Date/timePositionNaut miles runAvg speedWind from/ knotsBaromVisibWave heightAir tempDewpointWater temp
2015-Mar-05 02:08S 31°08' E 030°38'4316.1
2015-Mar-04 23:29S 30°27' E 030°53'1415.1
2015-Mar-04 22:33S 30°14' E 030°58'1413.6
2015-Mar-04 21:33S 30°01' E 031°04'10 9.6
2015-Mar-04 20:33S 29°52' E 031°04'3 2.9
2015-Mar-04 19:29S 29°53' E 031°00'0 0.0
2015-Mar-04 18:11S 29°53' E 031°00'0 0.0
2015-Mar-04 17:29S 29°53' E 031°00'0 0.0
2015-Mar-04 16:29S 29°53' E 031°00'0 0.0
2015-Mar-04 15:29S 29°53' E 031°00'0 0.0
2015-Mar-04 14:29S 29°53' E 031°00'0 0.0
2015-Mar-04 13:29S 29°53' E 031°00'0 0.0
2015-Mar-04 12:29S 29°53' E 031°00'0 0.0
2015-Mar-04 11:29S 29°53' E 031°00'0 0.0
2015-Mar-04 10:29S 29°53' E 031°00'0 0.0
2015-Mar-04 09:29S 29°53' E 031°00'0 0.0
2015-Mar-04 08:29S 29°53' E 031°00'0 0.0
2015-Mar-04 07:29S 29°53' E 031°00'0 0.0
2015-Mar-04 06:29S 29°53' E 031°00'0 0.0
2015-Mar-04 05:29S 29°53' E 031°00'0 0.0
2015-Mar-04 04:29S 29°53' E 031°00'0 0.0
2015-Mar-04 03:29S 29°53' E 031°00'0 0.0
2015-Mar-04 02:29S 29°53' E 031°00'0 0.0
2015-Mar-04 01:29S 29°53' E 031°00'0 0.0
2015-Mar-03 23:23S 29°53' E 031°00'0 0.0
2015-Mar-03 22:29S 29°53' E 031°00'0 0.0
2015-Mar-03 21:29S 29°53' E 031°00'0 0.0
2015-Mar-03 20:29S 29°53' E 031°00'0 0.0
2015-Mar-03 19:23S 29°53' E 031°00'0 0.0
2015-Mar-03 18:29S 29°53' E 031°00'0 0.0
2015-Mar-03 17:17S 29°53' E 031°00'0 0.0
2015-Mar-03 16:29S 29°53' E 031°00'0 0.0
2015-Mar-03 15:23S 29°53' E 031°00'0 0.0
2015-Mar-03 14:29S 29°53' E 031°00'0 0.0
2015-Mar-03 13:29S 29°53' E 031°00'0 0.0
2015-Mar-03 12:29S 29°53' E 031°00'0 0.0
2015-Mar-03 11:29S 29°53' E 031°00'0 0.0
2015-Mar-03 10:29S 29°53' E 031°00'0 0.0
2015-Mar-03 09:29S 29°53' E 031°00'0 0.0
2015-Mar-03 08:17S 29°53' E 031°00'0 0.0
2015-Mar-03 07:17S 29°53' E 031°00'0 0.0
2015-Mar-03 06:23S 29°53' E 031°00'0 0.0
2015-Mar-03 05:23S 29°53' E 031°00'0 0.0
2015-Mar-03 04:29S 29°53' E 031°00'0 0.0
2015-Mar-03 03:23S 29°53' E 031°00'0 0.0
2015-Mar-03 02:05S 29°53' E 031°00'0 0.0
2015-Mar-03 01:29S 29°53' E 031°00'0 0.0
2015-Mar-03 00:11S 29°53' E 031°00'0 0.0
2015-Mar-02 23:29S 29°53' E 031°00'0 0.0
2015-Mar-02 22:29S 29°53' E 031°00'0 0.0
2015-Mar-02 21:29S 29°53' E 031°00'0 0.0
2015-Mar-02 20:23S 29°53' E 031°00'0 0.0
2015-Mar-02 19:05S 29°53' E 031°00'0 0.0
2015-Mar-02 18:05S 29°53' E 031°00'0 0.0
2015-Mar-02 17:29S 29°53' E 031°00'0 0.0
2015-Mar-02 16:29S 29°53' E 031°00'0 0.0
2015-Mar-02 15:29S 29°53' E 031°00'0 0.0
2015-Mar-02 14:23S 29°53' E 031°00'0 0.0
2015-Mar-02 13:29S 29°53' E 031°00'0 0.0
2015-Mar-02 12:29S 29°53' E 031°00'0 0.0
2015-Mar-02 11:29S 29°53' E 031°00'0 0.0
2015-Mar-02 10:31S 29°53' E 031°00'3 3.4
2015-Mar-02 09:33S 29°52' E 031°04'6 5.7
2015-Mar-02 08:31S 29°47' E 031°08'6 6.0
2015-Mar-02 07:33S 29°41' E 031°09'0 0.0
2015-Mar-02 06:27S 29°41' E 031°09'0 0.0
2015-Mar-02 05:27S 29°41' E 031°09'0 0.0
2015-Mar-02 04:21S 29°41' E 031°09'0 0.0
2015-Mar-02 03:33S 29°41' E 031°09'0 0.0
2015-Mar-02 02:27S 29°41' E 031°09'0 0.0
2015-Mar-02 01:27S 29°41' E 031°09'0 0.0
2015-Mar-02 00:33S 29°41' E 031°09'0 0.0
2015-Mar-01 23:33S 29°41' E 031°09'0 0.0
2015-Mar-01 22:09S 29°41' E 031°09'0 0.0
2015-Mar-01 21:33S 29°41' E 031°09'0 0.0
2015-Mar-01 20:21S 29°41' E 031°09'0 0.0
2015-Mar-01 19:21S 29°41' E 031°09'0 0.0
2015-Mar-01 18:33S 29°41' E 031°09'0 0.1
2015-Mar-01 16:27S 29°41' E 031°09'0 0.0
2015-Mar-01 15:33S 29°41' E 031°09'0 0.0
2015-Mar-01 14:27S 29°41' E 031°09'0 0.0
2015-Mar-01 13:33S 29°41' E 031°09'0 0.1
2015-Mar-01 12:33S 29°41' E 031°09'0 0.0
2015-Mar-01 11:33S 29°41' E 031°09'0 0.1
2015-Mar-01 10:33S 29°41' E 031°09'0 0.0
2015-Mar-01 09:33S 29°41' E 031°09'0 0.0
2015-Mar-01 08:33S 29°41' E 031°09'0 0.0
2015-Mar-01 07:33S 29°41' E 031°09'7 7.3
2015-Mar-01 06:33S 29°45' E 031°16'1010.2
2015-Mar-01 05:32S 29°42' E 031°28'1110.7
2015-Mar-01 04:33S 29°39' E 031°39'1110.9
2015-Mar-01 03:30S 29°34' E 031°51'  

Dump ship's entire track history